首页
METAR-TAF:

METAR-TAF

机场 :

Mackenzie, 不列颠哥伦比亚, 加拿大

纬度: 55-18N, 经度: 123-08W, 海拔: 695米

当前天气观测

该预报发布于1小时和1分钟前的00:00 UTC
风速4节,风向西转西北,在西转西南西北之间变化
温度 18°C
湿度 32%
气压 1011 hPa
能見度: 14.5公里
天空无云

METAR: CYZY 170000Z AUTO 29004KT 240V320 9SM CLR 18/01 A2986 RMK SLP125 DENSITY ALT 3300FT

时间: 18:01 (01:01 UTC)

预报

该预报发布于6小时和21分钟前的18:40 UTC
预报有效从16日的 19点(UTC)到 17日的 07点(UTC)
风速8节,风向西北
能見度: 10公里
散云层高于8000英尺
从 16日的 2100点(UTC)
风速8节,风向西转西北
能見度: 10公里
多云层高于8000英尺
短暂存在
从 16日的 21点(UTC)到 17日的 03点(UTC)
能見度: 10公里
多云层高于6000英尺, 积雨云.
小阵雨, 附近有雷暴

TAF: CYZY 161840Z 1619/1707 32008KT P6SM SCT080 FM162100 30008KT P6SM BKN080 TEMPO 1621/1703 P6SM -SHRA VCTS BKN060CB RMK FCST BASED ON AUTO OBS. NXT FCST BY 170100Z

超过4000个机场的气象观测和天气预报(METAR&TAF报告)。

可查询的气象台以黄色和红色小点在地图上表示。

将鼠标移到小点上方,可查看气象台名称。

然后点击查看天气观测和预报。

如需切换地图:点击带黑十字的绿色按钮放大地图;点击带横线的绿色按钮缩小地图;或者点击绿色箭头查看邻近地区的地图。


METAR-TAF: